createdAt,value
2022-09-12T00:02:04.440Z,74.72
2022-09-12T00:04:31.991Z,74.49
2022-09-12T00:06:59.285Z,74.19
2022-09-12T00:09:26.699Z,73.99
2022-09-12T00:11:54.384Z,74.08
2022-09-12T00:14:21.748Z,73.35
2022-09-12T00:16:49.211Z,72.74
2022-09-12T00:19:16.634Z,72.83
2022-09-12T00:21:43.966Z,72.40
2022-09-12T00:24:11.734Z,72.09
2022-09-12T00:26:39.226Z,72.06
2022-09-12T00:29:06.667Z,71.91
2022-09-12T00:31:34.197Z,71.99
2022-09-12T00:34:01.729Z,71.65
2022-09-12T00:36:29.588Z,71.77
2022-09-12T00:38:57.028Z,71.42
2022-09-12T00:41:26.355Z,71.81
2022-09-12T00:43:59.296Z,71.65
2022-09-12T00:46:38.215Z,72.10
2022-09-12T00:49:19.445Z,72.81
2022-09-12T00:51:55.987Z,73.29
2022-09-12T00:54:26.348Z,74.08
2022-09-12T00:56:55.215Z,74.56
2022-09-12T00:59:25.461Z,74.69
2022-09-12T01:01:52.916Z,74.66
2022-09-12T01:04:21.517Z,74.56
2022-09-12T01:06:48.944Z,74.51
2022-09-12T01:09:18.295Z,74.41
2022-09-12T01:11:47.102Z,74.30
2022-09-12T01:14:15.183Z,74.12
2022-09-12T01:16:42.578Z,73.99
2022-09-12T01:19:40.906Z,73.45
2022-09-12T01:22:35.847Z,72.86
2022-09-12T01:25:18.347Z,72.25
2022-09-12T01:28:27.816Z,71.95
2022-09-12T01:31:07.209Z,71.09
2022-09-12T01:34:15.886Z,71.40
2022-09-12T01:36:51.296Z,71.62
2022-09-12T01:39:24.627Z,72.38
2022-09-12T01:42:13.846Z,72.87
2022-09-12T01:44:56.260Z,73.09
2022-09-12T01:47:34.300Z,72.85
2022-09-12T01:50:18.850Z,73.55
2022-09-12T01:53:00.208Z,73.20
2022-09-12T01:55:33.888Z,72.37
2022-09-12T01:58:04.773Z,71.79
2022-09-12T02:00:34.924Z,72.00
2022-09-12T02:03:12.733Z,72.30
2022-09-12T02:05:49.291Z,72.47
2022-09-12T02:08:23.214Z,71.82
2022-09-12T02:10:56.703Z,71.98
2022-09-12T02:13:27.516Z,72.56
2022-09-12T02:15:58.400Z,71.57
2022-09-12T02:18:26.047Z,71.34
2022-09-12T02:20:53.329Z,71.44
2022-09-12T02:23:22.833Z,72.19
2022-09-12T02:25:52.906Z,72.81
2022-09-12T02:28:24.084Z,72.93
2022-09-12T02:30:58.270Z,73.15
2022-09-12T02:33:33.352Z,73.60
2022-09-12T02:36:15.544Z,73.82
2022-09-12T02:38:46.490Z,73.97
2022-09-12T02:41:15.038Z,74.23
2022-09-12T02:43:42.374Z,74.61
2022-09-12T02:46:12.576Z,74.87
2022-09-12T02:48:41.641Z,74.70
2022-09-12T02:51:09.437Z,74.48
2022-09-12T02:53:36.795Z,74.16
2022-09-12T02:56:05.893Z,73.77
2022-09-12T02:58:33.233Z,73.94
2022-09-12T03:01:07.873Z,74.09
2022-09-12T03:03:47.563Z,74.02
2022-09-12T03:06:33.444Z,74.00
2022-09-12T03:09:37.855Z,74.77
2022-09-12T03:12:14.097Z,74.47
2022-09-12T03:15:03.976Z,73.77
2022-09-12T03:18:00.634Z,73.39
2022-09-12T03:20:40.123Z,73.00
2022-09-12T03:23:19.594Z,72.43
2022-09-12T03:25:54.271Z,72.54
2022-09-12T03:28:21.549Z,72.10
2022-09-12T03:30:49.352Z,71.63
2022-09-12T03:33:21.502Z,71.57
2022-09-12T03:35:48.906Z,71.70
2022-09-12T03:38:16.437Z,71.40
2022-09-12T03:40:43.736Z,71.38
2022-09-12T03:43:11.118Z,71.20
2022-09-12T03:45:38.481Z,71.51
2022-09-12T03:48:06.310Z,70.74
2022-09-12T03:50:34.075Z,71.44
2022-09-12T03:53:02.240Z,72.18
2022-09-12T03:55:29.569Z,72.55
2022-09-12T03:57:56.900Z,72.20
2022-09-12T04:00:24.332Z,72.39
2022-09-12T04:02:57.958Z,72.22
2022-09-12T04:05:25.369Z,71.86
2022-09-12T04:07:52.787Z,71.63
2022-09-12T04:10:20.113Z,71.72
2022-09-12T04:12:47.450Z,71.78
2022-09-12T04:15:14.784Z,71.58
2022-09-12T04:17:42.100Z,72.43
2022-09-12T04:20:09.494Z,72.48
2022-09-12T04:22:36.764Z,72.65
2022-09-12T04:25:04.231Z,72.78
2022-09-12T04:27:31.498Z,72.78
2022-09-12T04:29:58.924Z,72.90
2022-09-12T04:32:26.118Z,73.32
2022-09-12T04:34:53.434Z,73.46
2022-09-12T04:37:21.353Z,73.46
2022-09-12T04:39:49.649Z,73.43
2022-09-12T04:42:17.284Z,73.88
2022-09-12T04:44:44.596Z,74.15
2022-09-12T04:47:12.069Z,74.37
2022-09-12T04:49:39.569Z,74.07
2022-09-12T04:52:08.384Z,74.07
2022-09-12T04:54:36.107Z,73.93
2022-09-12T04:57:03.659Z,75.96
2022-09-12T04:59:35.237Z,73.37
2022-09-12T05:02:03.670Z,73.70
2022-09-12T05:04:32.676Z,74.02
2022-09-12T05:07:00.241Z,74.10
2022-09-12T05:09:28.474Z,74.15
2022-09-12T05:12:05.058Z,74.16
2022-09-12T05:14:33.702Z,72.46
2022-09-12T05:17:01.998Z,71.35
2022-09-12T05:19:30.440Z,71.09
2022-09-12T05:21:59.528Z,71.00
2022-09-12T05:24:27.453Z,71.83
2022-09-12T05:26:55.701Z,72.15
2022-09-12T05:29:25.283Z,71.97
2022-09-12T05:31:53.489Z,71.46
2022-09-12T05:34:21.475Z,70.87
2022-09-12T05:36:49.369Z,71.02
2022-09-12T05:39:17.000Z,71.06
2022-09-12T05:41:45.122Z,71.40
2022-09-12T05:44:12.940Z,71.35
2022-09-12T05:46:42.444Z,70.99
2022-09-12T05:49:12.774Z,70.97
2022-09-12T05:51:41.944Z,70.68
2022-09-12T05:54:10.417Z,70.47
2022-09-12T05:56:39.823Z,69.87
2022-09-12T05:59:12.365Z,69.38
2022-09-12T06:01:40.120Z,69.13
2022-09-12T06:04:10.839Z,69.00
2022-09-12T06:06:42.560Z,68.81
2022-09-12T06:09:10.914Z,68.62
2022-09-12T06:11:40.942Z,68.36
2022-09-12T06:14:08.926Z,68.53
2022-09-12T06:16:37.584Z,68.09
2022-09-12T06:19:07.422Z,68.03
2022-09-12T06:21:35.667Z,67.50
2022-09-12T06:24:03.186Z,67.26
2022-09-12T06:26:30.809Z,66.61
2022-09-12T06:28:59.798Z,66.26
2022-09-12T06:31:31.947Z,65.83
2022-09-12T06:34:04.071Z,65.15
2022-09-12T06:36:33.157Z,64.98
2022-09-12T06:39:02.144Z,64.87
2022-09-12T06:41:29.898Z,64.32
2022-09-12T06:43:57.634Z,62.94
2022-09-12T06:46:25.267Z,62.40
2022-09-12T06:48:52.800Z,61.65
2022-09-12T06:51:21.754Z,55.63
2022-09-12T06:53:49.312Z,49.80
2022-09-12T06:56:19.337Z,45.75
2022-09-12T06:58:48.397Z,44.04
2022-09-12T07:01:20.952Z,42.08
2022-09-12T07:03:53.541Z,41.27
2022-09-12T07:06:22.399Z,40.48
2022-09-12T07:08:51.602Z,39.92
2022-09-12T07:11:34.415Z,39.88
2022-09-12T07:14:07.053Z,39.70
2022-09-12T07:16:37.954Z,39.66
2022-09-12T07:19:07.375Z,39.36
2022-09-12T07:21:40.321Z,39.29
2022-09-12T07:24:13.169Z,38.40
2022-09-12T07:26:40.763Z,41.81
2022-09-12T07:29:35.273Z,39.73
2022-09-12T07:31:58.299Z,38.86
2022-09-12T07:34:26.654Z,39.08
2022-09-12T07:36:55.235Z,39.96
2022-09-12T07:39:22.730Z,38.25
2022-09-12T07:41:51.562Z,38.10
2022-09-12T07:44:19.655Z,41.16
2022-09-12T07:46:54.825Z,43.45
2022-09-12T07:49:22.756Z,41.62
2022-09-12T07:51:50.847Z,40.53
2022-09-12T07:54:18.540Z,40.40
2022-09-12T07:56:46.387Z,38.53
2022-09-12T07:59:21.543Z,37.43
2022-09-12T08:01:57.883Z,36.29
2022-09-12T08:04:25.748Z,37.17
2022-09-12T08:06:53.614Z,37.31
2022-09-12T08:09:21.734Z,37.05
2022-09-12T08:11:50.241Z,37.35
2022-09-12T08:14:18.556Z,39.40
2022-09-12T08:16:48.473Z,39.27
2022-09-12T08:19:15.903Z,40.02
2022-09-12T08:21:43.267Z,38.52
2022-09-12T08:24:11.717Z,38.45
2022-09-12T08:26:39.083Z,38.49
2022-09-12T08:29:06.458Z,38.19
2022-09-12T08:31:36.836Z,37.97
2022-09-12T08:34:05.632Z,40.53
2022-09-12T08:36:33.533Z,42.90
2022-09-12T08:39:02.631Z,42.93
2022-09-12T08:41:32.732Z,44.07
2022-09-12T08:44:19.264Z,45.12
2022-09-12T08:47:09.265Z,46.58
2022-09-12T08:49:42.351Z,46.88
2022-09-12T08:52:32.705Z,46.71
2022-09-12T08:55:01.956Z,46.35
2022-09-12T08:57:29.690Z,46.93
2022-09-12T08:59:57.286Z,47.07
2022-09-12T09:02:49.413Z,46.91
2022-09-12T09:05:22.745Z,46.33
2022-09-12T09:08:32.526Z,46.82
2022-09-12T09:11:46.700Z,47.09
2022-09-12T09:14:50.573Z,47.06
2022-09-12T09:17:55.628Z,48.33
2022-09-12T09:20:49.705Z,47.88
2022-09-12T09:23:34.099Z,48.03
2022-09-12T09:26:14.919Z,48.86
2022-09-12T09:28:53.358Z,48.30
2022-09-12T09:31:25.530Z,48.54
2022-09-12T09:33:55.558Z,48.46
2022-09-12T09:36:44.201Z,49.26
2022-09-12T09:39:29.549Z,49.62
2022-09-12T09:42:16.343Z,49.79
2022-09-12T09:44:47.027Z,50.54
2022-09-12T09:47:15.354Z,50.85
2022-09-12T09:49:43.321Z,51.39
2022-09-12T09:52:12.224Z,51.67
2022-09-12T09:54:44.544Z,51.30
2022-09-12T09:57:53.396Z,51.18
2022-09-12T10:00:42.366Z,51.45
2022-09-12T10:03:15.462Z,50.41
2022-09-12T10:05:51.681Z,50.17
2022-09-12T10:08:26.874Z,50.05
2022-09-12T10:11:08.910Z,49.98
2022-09-12T10:13:43.667Z,48.82
2022-09-12T10:16:54.595Z,48.12
2022-09-12T10:19:27.905Z,48.59
2022-09-12T10:21:56.849Z,51.86
2022-09-12T10:24:31.369Z,49.37
2022-09-12T10:27:20.697Z,52.71
2022-09-12T10:29:50.397Z,49.46
2022-09-12T10:32:31.274Z,52.35
2022-09-12T10:35:03.302Z,52.32
2022-09-12T10:37:36.008Z,54.16
2022-09-12T10:40:05.653Z,54.18
2022-09-12T10:42:49.994Z,55.13
2022-09-12T10:45:25.465Z,53.79
2022-09-12T10:47:53.973Z,53.52
2022-09-12T10:50:23.062Z,53.82
2022-09-12T10:52:51.753Z,52.77
2022-09-12T10:55:21.466Z,53.08
2022-09-12T10:58:14.471Z,55.08
2022-09-12T11:00:49.476Z,54.25
2022-09-12T11:03:25.437Z,55.41
2022-09-12T11:05:58.288Z,51.67
2022-09-12T11:08:54.205Z,50.24
2022-09-12T11:11:57.392Z,49.12
2022-09-12T11:14:27.764Z,49.09
2022-09-12T11:17:18.819Z,52.80
2022-09-12T11:20:04.587Z,49.38
2022-09-12T11:22:37.069Z,54.14
2022-09-12T11:25:42.528Z,50.10
2022-09-12T11:28:26.120Z,51.50
2022-09-12T11:31:05.811Z,56.13
2022-09-12T11:33:43.569Z,54.69
2022-09-12T11:36:32.385Z,55.33
2022-09-12T11:39:16.740Z,54.79
2022-09-12T11:41:48.605Z,54.12
2022-09-12T11:44:18.470Z,56.97
2022-09-12T11:46:51.745Z,55.20
2022-09-12T11:49:42.766Z,57.34
2022-09-12T11:52:20.515Z,54.98
2022-09-12T11:54:58.627Z,54.64
2022-09-12T11:57:44.577Z,53.79
2022-09-12T12:00:18.475Z,51.91
2022-09-12T12:03:18.671Z,54.38
2022-09-12T12:05:55.405Z,52.98
2022-09-12T12:08:23.746Z,51.08
2022-09-12T12:11:02.171Z,50.57
2022-09-12T12:13:32.356Z,50.93
2022-09-12T12:16:04.313Z,51.13
2022-09-12T12:18:32.857Z,52.31
2022-09-12T12:21:32.228Z,49.41
2022-09-12T12:24:09.044Z,50.15
2022-09-12T12:26:39.792Z,50.25
2022-09-12T12:29:21.827Z,51.10
2022-09-12T12:32:04.352Z,48.61
2022-09-12T12:34:42.508Z,46.63
2022-09-12T12:37:19.132Z,45.59
2022-09-12T12:39:54.066Z,44.85
2022-09-12T12:42:54.415Z,44.22
2022-09-12T12:45:27.948Z,45.05
2022-09-12T12:48:14.907Z,46.02
2022-09-12T12:50:43.224Z,46.72
2022-09-12T12:53:24.959Z,46.62
2022-09-12T12:55:53.147Z,46.22
2022-09-12T12:58:36.581Z,45.32
2022-09-12T13:01:10.168Z,45.93
2022-09-12T13:03:38.473Z,44.90
2022-09-12T13:06:07.375Z,44.11
2022-09-12T13:08:39.848Z,43.81
2022-09-12T13:11:07.426Z,42.75
2022-09-12T13:13:53.103Z,41.98
2022-09-12T13:16:40.619Z,41.18
2022-09-12T13:19:18.408Z,41.02
2022-09-12T13:22:08.930Z,40.52
2022-09-12T13:24:44.965Z,40.96
2022-09-12T13:27:24.199Z,41.33
2022-09-12T13:30:18.702Z,42.64
2022-09-12T13:32:48.277Z,42.50
2022-09-12T13:35:21.916Z,42.95
2022-09-12T13:37:54.813Z,43.26
2022-09-12T13:40:34.821Z,44.15
2022-09-12T13:43:09.388Z,43.92
2022-09-12T13:45:38.764Z,43.81
2022-09-12T13:48:06.736Z,43.20
2022-09-12T13:50:57.857Z,43.67
2022-09-12T13:53:26.919Z,43.42
2022-09-12T13:55:56.874Z,42.98
2022-09-12T13:58:34.688Z,42.79
2022-09-12T14:01:08.603Z,42.59
2022-09-12T14:04:13.295Z,42.02
2022-09-12T14:06:51.828Z,43.09
2022-09-12T14:09:25.279Z,42.82
2022-09-12T14:11:53.067Z,42.28
2022-09-12T14:14:23.012Z,42.24
2022-09-12T14:16:50.433Z,42.83
2022-09-12T14:19:26.301Z,42.76
2022-09-12T14:21:54.129Z,42.54
2022-09-12T14:24:23.457Z,42.55
2022-09-12T14:26:57.393Z,41.60
2022-09-12T14:29:25.494Z,41.74
2022-09-12T14:32:03.540Z,41.16
2022-09-12T14:34:31.539Z,41.03
2022-09-12T14:36:58.820Z,40.88
2022-09-12T14:39:34.011Z,40.87
2022-09-12T14:42:08.285Z,41.97
2022-09-12T14:44:35.908Z,42.03
2022-09-12T14:47:20.896Z,42.80
2022-09-12T14:49:51.805Z,42.14
2022-09-12T14:52:26.840Z,42.10
2022-09-12T14:55:01.033Z,41.42
2022-09-12T14:57:28.364Z,40.65
2022-09-12T15:00:06.389Z,40.19
2022-09-12T15:02:34.542Z,40.63
2022-09-12T15:05:04.968Z,40.52
2022-09-12T15:07:37.069Z,40.79
2022-09-12T15:10:22.960Z,40.89
2022-09-12T15:12:50.506Z,40.81
2022-09-12T15:15:19.538Z,41.05
2022-09-12T15:17:47.034Z,40.08
2022-09-12T15:20:15.016Z,40.38
2022-09-12T15:22:43.009Z,40.04
2022-09-12T15:25:10.638Z,39.52
2022-09-12T15:27:41.168Z,38.74
2022-09-12T15:30:10.418Z,40.17
2022-09-12T15:32:38.109Z,40.71
2022-09-12T15:35:20.697Z,40.75
2022-09-12T15:37:48.320Z,41.42
2022-09-12T15:40:15.880Z,41.01
2022-09-12T15:42:43.983Z,42.11
2022-09-12T15:45:17.882Z,42.29
2022-09-12T15:47:45.633Z,42.46
2022-09-12T15:50:13.483Z,43.53
2022-09-12T15:52:41.713Z,43.55
2022-09-12T15:55:20.166Z,42.89
2022-09-12T15:57:48.013Z,42.63
2022-09-12T16:00:16.125Z,43.16
2022-09-12T16:02:44.856Z,42.44
2022-09-12T16:05:20.897Z,43.28
2022-09-12T16:07:49.435Z,42.90
2022-09-12T16:10:18.370Z,43.77
2022-09-12T16:12:46.497Z,43.27
2022-09-12T16:15:15.661Z,44.60
2022-09-12T16:17:46.856Z,44.23
2022-09-12T16:20:14.671Z,44.58
2022-09-12T16:22:45.423Z,44.44
2022-09-12T16:25:13.014Z,44.81
2022-09-12T16:27:40.988Z,45.31
2022-09-12T16:30:09.348Z,45.62
2022-09-12T16:32:36.641Z,46.09
2022-09-12T16:35:04.574Z,46.37
2022-09-12T16:37:34.751Z,47.05
2022-09-12T16:40:03.892Z,46.94
2022-09-12T16:42:31.785Z,46.81
2022-09-12T16:44:59.233Z,46.80
2022-09-12T16:47:26.939Z,47.33
2022-09-12T16:49:54.379Z,47.68
2022-09-12T16:52:21.976Z,47.47
2022-09-12T16:54:49.492Z,47.67
2022-09-12T16:57:17.115Z,48.15
2022-09-12T16:59:45.175Z,48.23
2022-09-12T17:02:13.702Z,48.07
2022-09-12T17:04:41.621Z,48.10
2022-09-12T17:07:09.234Z,48.63
2022-09-12T17:09:36.795Z,48.81
2022-09-12T17:12:04.712Z,49.25
2022-09-12T17:14:32.113Z,49.34
2022-09-12T17:16:59.447Z,50.18
2022-09-12T17:19:28.261Z,50.22
2022-09-12T17:21:56.735Z,50.36
2022-09-12T17:24:24.966Z,50.53
2022-09-12T17:26:52.451Z,50.91
2022-09-12T17:29:20.132Z,50.81
2022-09-12T17:31:47.376Z,51.14
2022-09-12T17:34:15.252Z,51.24
2022-09-12T17:36:45.680Z,51.45
2022-09-12T17:39:13.174Z,51.60
2022-09-12T17:41:41.826Z,51.94
2022-09-12T17:44:11.110Z,52.04
2022-09-12T17:46:38.742Z,52.22
2022-09-12T17:49:08.933Z,52.62
2022-09-12T17:51:36.292Z,52.88
2022-09-12T17:54:08.704Z,52.88
2022-09-12T17:56:37.109Z,53.48
2022-09-12T17:59:04.700Z,53.76
2022-09-12T18:01:51.185Z,54.08
2022-09-12T18:04:19.993Z,53.88
2022-09-12T18:06:50.309Z,54.65
2022-09-12T18:09:19.688Z,54.58
2022-09-12T18:11:48.257Z,53.76
2022-09-12T18:14:15.908Z,54.70
2022-09-12T18:16:43.394Z,55.00
2022-09-12T18:19:11.077Z,55.17
2022-09-12T18:21:38.469Z,55.54
2022-09-12T18:24:06.089Z,55.81
2022-09-12T18:26:33.404Z,56.01
2022-09-12T18:29:00.779Z,55.74
2022-09-12T18:31:29.149Z,55.87
2022-09-12T18:33:56.762Z,56.23
2022-09-12T18:36:24.196Z,56.39
2022-09-12T18:38:51.524Z,56.44
2022-09-12T18:41:20.416Z,56.42
2022-09-12T18:43:48.191Z,56.58
2022-09-12T18:46:18.934Z,56.56
2022-09-12T18:48:46.472Z,56.62
2022-09-12T18:51:21.554Z,56.68
2022-09-12T18:53:53.699Z,57.08
2022-09-12T18:56:21.362Z,57.76
2022-09-12T18:58:53.185Z,57.96
2022-09-12T19:01:24.926Z,57.98
2022-09-12T19:03:52.690Z,58.13
2022-09-12T19:06:23.745Z,57.94
2022-09-12T19:08:51.358Z,57.83
2022-09-12T19:11:18.758Z,57.51
2022-09-12T19:13:46.977Z,57.78
2022-09-12T19:16:16.027Z,57.95
2022-09-12T19:18:43.638Z,58.07
2022-09-12T19:21:15.336Z,58.39
2022-09-12T19:23:42.682Z,58.61
2022-09-12T19:26:11.009Z,58.72
2022-09-12T19:28:38.260Z,58.85
2022-09-12T19:31:06.697Z,59.24
2022-09-12T19:33:34.214Z,60.21
2022-09-12T19:36:03.368Z,60.44
2022-09-12T19:38:30.745Z,60.19
2022-09-12T19:40:58.757Z,59.60
2022-09-12T19:43:26.253Z,59.73
2022-09-12T19:45:54.793Z,60.45
2022-09-12T19:48:22.181Z,61.33
2022-09-12T19:50:49.512Z,61.72
2022-09-12T19:53:17.216Z,61.80
2022-09-12T19:55:45.277Z,61.97
2022-09-12T19:58:13.431Z,61.91
2022-09-12T20:00:40.915Z,62.14
2022-09-12T20:03:08.694Z,62.16
2022-09-12T20:05:39.540Z,62.35
2022-09-12T20:08:09.901Z,62.44
2022-09-12T20:10:37.412Z,62.46
2022-09-12T20:13:05.478Z,62.71
2022-09-12T20:15:32.789Z,62.94
2022-09-12T20:18:00.047Z,63.11
2022-09-12T20:20:27.639Z,63.22
2022-09-12T20:22:54.936Z,63.56
2022-09-12T20:25:22.182Z,63.83
2022-09-12T20:27:49.527Z,64.30
2022-09-12T20:30:17.148Z,64.08
2022-09-12T20:32:44.389Z,64.16
2022-09-12T20:35:11.660Z,64.20
2022-09-12T20:37:40.545Z,64.51
2022-09-12T20:40:08.570Z,64.58
2022-09-12T20:42:36.090Z,64.70
2022-09-12T20:45:04.563Z,64.55
2022-09-12T20:47:31.883Z,64.75
2022-09-12T20:49:59.158Z,64.99
2022-09-12T20:52:26.458Z,65.18
2022-09-12T20:54:53.674Z,65.26
2022-09-12T20:57:20.942Z,65.44
2022-09-12T20:59:48.165Z,65.53
2022-09-12T21:02:15.718Z,65.73
2022-09-12T21:04:43.159Z,65.48
2022-09-12T21:07:10.581Z,65.75
2022-09-12T21:09:37.789Z,65.99
2022-09-12T21:12:05.385Z,66.45
2022-09-12T21:14:32.690Z,66.08
2022-09-12T21:17:00.007Z,66.36
2022-09-12T21:19:27.303Z,66.66
2022-09-12T21:21:54.636Z,67.41
2022-09-12T21:24:21.847Z,67.38
2022-09-12T21:26:49.049Z,67.45
2022-09-12T21:29:16.489Z,67.09
2022-09-12T21:31:44.097Z,66.83
2022-09-12T21:34:11.307Z,67.06
2022-09-12T21:36:38.775Z,67.58
2022-09-12T21:39:06.078Z,67.88
2022-09-12T21:41:33.503Z,67.38
2022-09-12T21:44:00.881Z,67.75
2022-09-12T21:46:28.247Z,68.80
2022-09-12T21:48:55.540Z,68.24
2022-09-12T21:51:23.037Z,68.73
2022-09-12T21:53:50.349Z,68.19
2022-09-12T21:56:17.593Z,68.00
2022-09-12T21:58:45.141Z,68.12
2022-09-12T22:01:12.713Z,67.70
2022-09-12T22:03:40.370Z,67.77
2022-09-12T22:06:07.950Z,67.99
2022-09-12T22:08:35.497Z,67.82
2022-09-12T22:11:04.687Z,67.94
2022-09-12T22:13:32.375Z,67.68
2022-09-12T22:16:01.418Z,68.12
2022-09-12T22:18:29.675Z,67.97
2022-09-12T22:21:05.371Z,68.04
2022-09-12T22:23:51.327Z,68.33
2022-09-12T22:26:18.694Z,69.28
2022-09-12T22:28:47.290Z,69.64
2022-09-12T22:31:14.932Z,69.97
2022-09-12T22:33:42.310Z,69.82
2022-09-12T22:36:10.122Z,69.88
2022-09-12T22:38:37.417Z,70.07
2022-09-12T22:41:06.145Z,69.97
2022-09-12T22:43:34.089Z,69.56
2022-09-12T22:46:01.646Z,68.72
2022-09-12T22:48:28.893Z,68.42
2022-09-12T22:50:56.151Z,68.43
2022-09-12T22:53:23.406Z,68.60
2022-09-12T22:55:50.761Z,69.02
2022-09-12T22:58:18.111Z,68.62
2022-09-12T23:00:50.214Z,68.99
2022-09-12T23:03:18.178Z,68.58
2022-09-12T23:05:46.738Z,68.62
2022-09-12T23:08:14.970Z,68.89
2022-09-12T23:10:42.440Z,69.09
2022-09-12T23:13:09.956Z,68.91
2022-09-12T23:15:37.285Z,68.96
2022-09-12T23:18:05.220Z,68.77
2022-09-12T23:20:32.658Z,68.36
2022-09-12T23:23:00.116Z,68.73
2022-09-12T23:25:27.521Z,69.39
2022-09-12T23:27:54.813Z,69.80
2022-09-12T23:30:21.987Z,69.61
2022-09-12T23:32:49.360Z,69.30
2022-09-12T23:35:19.461Z,69.11
2022-09-12T23:37:47.311Z,69.15
2022-09-12T23:40:14.597Z,69.43
2022-09-12T23:42:41.946Z,69.98
2022-09-12T23:45:10.387Z,70.12
2022-09-12T23:47:37.687Z,70.75
2022-09-12T23:50:05.179Z,70.29
2022-09-12T23:52:32.434Z,70.22
2022-09-12T23:54:59.834Z,69.71
2022-09-12T23:57:27.149Z,69.32
2022-09-12T23:59:54.308Z,69.39
